sensor_id;sensor_type;location;lat;lon;timestamp;P1;durP1;ratioP1;P2;durP2;ratioP2
665;SDS011;315;48.738;9.126;2023-03-01T00:01:04;23.70;;;16.47;;
665;SDS011;315;48.738;9.126;2023-03-01T00:03:32;21.07;;;17.23;;
665;SDS011;315;48.738;9.126;2023-03-01T00:05:59;25.90;;;19.70;;
665;SDS011;315;48.738;9.126;2023-03-01T00:08:25;27.47;;;19.30;;
665;SDS011;315;48.738;9.126;2023-03-01T00:11:01;31.07;;;19.57;;
665;SDS011;315;48.738;9.126;2023-03-01T00:13:29;27.07;;;19.07;;
665;SDS011;315;48.738;9.126;2023-03-01T00:15:55;27.23;;;18.93;;
665;SDS011;315;48.738;9.126;2023-03-01T00:18:20;23.50;;;18.23;;
665;SDS011;315;48.738;9.126;2023-03-01T00:20:50;21.60;;;17.63;;
665;SDS011;315;48.738;9.126;2023-03-01T00:23:20;25.23;;;17.40;;
665;SDS011;315;48.738;9.126;2023-03-01T00:25:46;29.60;;;19.20;;
665;SDS011;315;48.738;9.126;2023-03-01T00:28:12;21.33;;;16.90;;
665;SDS011;315;48.738;9.126;2023-03-01T00:30:38;24.60;;;17.30;;
665;SDS011;315;48.738;9.126;2023-03-01T00:33:03;23.80;;;15.67;;
665;SDS011;315;48.738;9.126;2023-03-01T00:35:29;22.40;;;17.87;;
665;SDS011;315;48.738;9.126;2023-03-01T00:37:58;23.70;;;16.73;;
665;SDS011;315;48.738;9.126;2023-03-01T00:40:24;34.10;;;22.30;;
665;SDS011;315;48.738;9.126;2023-03-01T00:42:50;24.33;;;19.10;;
665;SDS011;315;48.738;9.126;2023-03-01T00:45:16;30.37;;;21.40;;
665;SDS011;315;48.738;9.126;2023-03-01T00:47:42;25.10;;;19.37;;
665;SDS011;315;48.738;9.126;2023-03-01T00:50:08;25.80;;;18.87;;
665;SDS011;315;48.738;9.126;2023-03-01T00:52:35;21.93;;;17.77;;
665;SDS011;315;48.738;9.126;2023-03-01T00:55:00;24.57;;;17.23;;
665;SDS011;315;48.738;9.126;2023-03-01T00:57:26;23.97;;;15.87;;
665;SDS011;315;48.738;9.126;2023-03-01T00:59:51;28.27;;;16.73;;
665;SDS011;315;48.738;9.126;2023-03-01T01:02:17;26.73;;;16.70;;
665;SDS011;315;48.738;9.126;2023-03-01T01:04:44;23.87;;;17.57;;
665;SDS011;315;48.738;9.126;2023-03-01T01:07:10;22.50;;;15.90;;
665;SDS011;315;48.738;9.126;2023-03-01T01:09:35;22.23;;;17.67;;
665;SDS011;315;48.738;9.126;2023-03-01T01:12:01;25.47;;;17.67;;
665;SDS011;315;48.738;9.126;2023-03-01T01:14:27;21.30;;;15.00;;
665;SDS011;315;48.738;9.126;2023-03-01T01:16:53;23.83;;;16.13;;
665;SDS011;315;48.738;9.126;2023-03-01T01:19:18;23.80;;;17.20;;
665;SDS011;315;48.738;9.126;2023-03-01T01:21:44;22.30;;;16.20;;
665;SDS011;315;48.738;9.126;2023-03-01T01:24:10;21.90;;;15.60;;
665;SDS011;315;48.738;9.126;2023-03-01T01:26:36;21.80;;;15.83;;
665;SDS011;315;48.738;9.126;2023-03-01T01:29:02;20.70;;;15.50;;
665;SDS011;315;48.738;9.126;2023-03-01T01:31:30;23.80;;;16.00;;
665;SDS011;315;48.738;9.126;2023-03-01T01:33:56;20.60;;;14.80;;
665;SDS011;315;48.738;9.126;2023-03-01T01:36:23;22.30;;;15.90;;
665;SDS011;315;48.738;9.126;2023-03-01T01:38:49;21.40;;;15.63;;
665;SDS011;315;48.738;9.126;2023-03-01T01:41:15;21.97;;;15.50;;
665;SDS011;315;48.738;9.126;2023-03-01T01:43:46;23.03;;;16.80;;
665;SDS011;315;48.738;9.126;2023-03-01T01:46:15;20.37;;;16.57;;
665;SDS011;315;48.738;9.126;2023-03-01T01:48:52;18.93;;;15.03;;
665;SDS011;315;48.738;9.126;2023-03-01T01:51:24;22.50;;;15.20;;
665;SDS011;315;48.738;9.126;2023-03-01T01:53:53;23.53;;;16.10;;
665;SDS011;315;48.738;9.126;2023-03-01T01:56:24;21.20;;;17.57;;
665;SDS011;315;48.738;9.126;2023-03-01T01:58:51;17.90;;;14.00;;
665;SDS011;315;48.738;9.126;2023-03-01T02:01:17;25.20;;;17.10;;
665;SDS011;315;48.738;9.126;2023-03-01T02:03:43;16.50;;;14.37;;
665;SDS011;315;48.738;9.126;2023-03-01T02:08:59;21.67;;;15.97;;
665;SDS011;315;48.738;9.126;2023-03-01T02:11:30;20.47;;;15.87;;
665;SDS011;315;48.738;9.126;2023-03-01T02:13:57;20.87;;;16.20;;
665;SDS011;315;48.738;9.126;2023-03-01T02:16:23;22.03;;;16.33;;
665;SDS011;315;48.738;9.126;2023-03-01T02:18:49;23.13;;;15.90;;
665;SDS011;315;48.738;9.126;2023-03-01T02:23:47;21.83;;;14.97;;
665;SDS011;315;48.738;9.126;2023-03-01T02:26:20;21.60;;;15.50;;
665;SDS011;315;48.738;9.126;2023-03-01T02:28:51;25.83;;;16.20;;
665;SDS011;315;48.738;9.126;2023-03-01T02:31:18;20.00;;;14.50;;
665;SDS011;315;48.738;9.126;2023-03-01T02:34:03;23.43;;;17.07;;
665;SDS011;315;48.738;9.126;2023-03-01T02:36:33;20.57;;;16.53;;
665;SDS011;315;48.738;9.126;2023-03-01T02:39:02;27.53;;;16.23;;
665;SDS011;315;48.738;9.126;2023-03-01T02:41:31;25.80;;;16.40;;
665;SDS011;315;48.738;9.126;2023-03-01T02:44:02;21.43;;;16.03;;
665;SDS011;315;48.738;9.126;2023-03-01T02:46:28;26.37;;;16.47;;
665;SDS011;315;48.738;9.126;2023-03-01T02:48:57;21.20;;;15.57;;
665;SDS011;315;48.738;9.126;2023-03-01T02:51:31;22.17;;;15.70;;
665;SDS011;315;48.738;9.126;2023-03-01T02:56:40;23.53;;;16.83;;
665;SDS011;315;48.738;9.126;2023-03-01T02:59:07;22.43;;;15.87;;
665;SDS011;315;48.738;9.126;2023-03-01T03:01:34;20.43;;;14.00;;
665;SDS011;315;48.738;9.126;2023-03-01T03:04:03;20.53;;;17.47;;
665;SDS011;315;48.738;9.126;2023-03-01T03:06:34;21.93;;;15.70;;
665;SDS011;315;48.738;9.126;2023-03-01T03:09:00;18.63;;;15.23;;
665;SDS011;315;48.738;9.126;2023-03-01T03:11:26;21.63;;;14.33;;
665;SDS011;315;48.738;9.126;2023-03-01T03:13:51;21.93;;;16.57;;
665;SDS011;315;48.738;9.126;2023-03-01T03:16:18;23.30;;;17.07;;
665;SDS011;315;48.738;9.126;2023-03-01T03:18:44;21.33;;;15.53;;
665;SDS011;315;48.738;9.126;2023-03-01T03:21:10;20.10;;;15.00;;
665;SDS011;315;48.738;9.126;2023-03-01T03:23:36;22.33;;;16.90;;
665;SDS011;315;48.738;9.126;2023-03-01T03:26:03;27.10;;;18.00;;
665;SDS011;315;48.738;9.126;2023-03-01T03:28:30;24.40;;;17.40;;
665;SDS011;315;48.738;9.126;2023-03-01T03:30:56;26.93;;;15.63;;
665;SDS011;315;48.738;9.126;2023-03-01T03:33:22;23.23;;;17.67;;
665;SDS011;315;48.738;9.126;2023-03-01T03:35:48;22.73;;;16.20;;
665;SDS011;315;48.738;9.126;2023-03-01T03:38:15;22.30;;;17.00;;
665;SDS011;315;48.738;9.126;2023-03-01T03:41:05;21.27;;;16.17;;
665;SDS011;315;48.738;9.126;2023-03-01T03:43:32;21.57;;;16.17;;
665;SDS011;315;48.738;9.126;2023-03-01T03:45:59;20.37;;;14.83;;
665;SDS011;315;48.738;9.126;2023-03-01T03:48:25;21.23;;;16.20;;
665;SDS011;315;48.738;9.126;2023-03-01T03:50:52;20.50;;;15.37;;
665;SDS011;315;48.738;9.126;2023-03-01T03:53:19;22.40;;;16.73;;
665;SDS011;315;48.738;9.126;2023-03-01T03:55:46;26.30;;;18.17;;
665;SDS011;315;48.738;9.126;2023-03-01T03:58:14;19.13;;;15.90;;
665;SDS011;315;48.738;9.126;2023-03-01T04:00:41;20.10;;;14.83;;
665;SDS011;315;48.738;9.126;2023-03-01T04:03:08;23.77;;;16.17;;
665;SDS011;315;48.738;9.126;2023-03-01T04:05:36;20.50;;;16.87;;
665;SDS011;315;48.738;9.126;2023-03-01T04:08:03;25.40;;;17.63;;
665;SDS011;315;48.738;9.126;2023-03-01T04:10:33;24.90;;;17.80;;
665;SDS011;315;48.738;9.126;2023-03-01T04:13:01;23.73;;;16.30;;
665;SDS011;315;48.738;9.126;2023-03-01T04:15:26;23.50;;;16.77;;
665;SDS011;315;48.738;9.126;2023-03-01T04:17:53;23.40;;;17.83;;
665;SDS011;315;48.738;9.126;2023-03-01T04:20:21;25.27;;;18.50;;
665;SDS011;315;48.738;9.126;2023-03-01T04:22:52;24.50;;;16.90;;
665;SDS011;315;48.738;9.126;2023-03-01T04:25:35;20.30;;;16.30;;
665;SDS011;315;48.738;9.126;2023-03-01T04:28:11;21.03;;;16.83;;
665;SDS011;315;48.738;9.126;2023-03-01T04:30:37;23.63;;;16.77;;
665;SDS011;315;48.738;9.126;2023-03-01T04:33:07;26.03;;;18.13;;
665;SDS011;315;48.738;9.126;2023-03-01T04:35:34;24.00;;;16.97;;
665;SDS011;315;48.738;9.126;2023-03-01T04:38:01;25.27;;;17.63;;
665;SDS011;315;48.738;9.126;2023-03-01T04:40:27;20.40;;;16.33;;
665;SDS011;315;48.738;9.126;2023-03-01T04:42:52;19.90;;;16.20;;
665;SDS011;315;48.738;9.126;2023-03-01T04:45:18;26.60;;;18.47;;
665;SDS011;315;48.738;9.126;2023-03-01T04:47:45;24.07;;;18.20;;
665;SDS011;315;48.738;9.126;2023-03-01T04:50:12;25.57;;;16.90;;
665;SDS011;315;48.738;9.126;2023-03-01T04:52:42;20.93;;;16.43;;
665;SDS011;315;48.738;9.126;2023-03-01T04:55:09;27.23;;;17.97;;
665;SDS011;315;48.738;9.126;2023-03-01T04:57:35;24.47;;;18.27;;
665;SDS011;315;48.738;9.126;2023-03-01T05:00:00;24.40;;;16.23;;
665;SDS011;315;48.738;9.126;2023-03-01T05:02:26;23.33;;;17.90;;
665;SDS011;315;48.738;9.126;2023-03-01T05:04:51;23.07;;;17.50;;
665;SDS011;315;48.738;9.126;2023-03-01T05:07:17;23.07;;;17.23;;
665;SDS011;315;48.738;9.126;2023-03-01T05:09:47;21.60;;;17.50;;
665;SDS011;315;48.738;9.126;2023-03-01T05:12:14;22.00;;;17.57;;
665;SDS011;315;48.738;9.126;2023-03-01T05:14:40;25.33;;;18.00;;
665;SDS011;315;48.738;9.126;2023-03-01T05:17:06;24.03;;;18.13;;
665;SDS011;315;48.738;9.126;2023-03-01T05:19:32;24.47;;;16.63;;
665;SDS011;315;48.738;9.126;2023-03-01T05:21:58;27.67;;;21.17;;
665;SDS011;315;48.738;9.126;2023-03-01T05:24:26;24.73;;;18.33;;
665;SDS011;315;48.738;9.126;2023-03-01T05:26:52;29.30;;;20.00;;
665;SDS011;315;48.738;9.126;2023-03-01T05:29:21;27.07;;;17.43;;
665;SDS011;315;48.738;9.126;2023-03-01T05:31:53;24.20;;;16.80;;
665;SDS011;315;48.738;9.126;2023-03-01T05:34:28;29.00;;;20.70;;
665;SDS011;315;48.738;9.126;2023-03-01T05:36:56;22.90;;;17.90;;
665;SDS011;315;48.738;9.126;2023-03-01T05:39:23;26.27;;;17.43;;
665;SDS011;315;48.738;9.126;2023-03-01T05:41:52;30.70;;;20.30;;
665;SDS011;315;48.738;9.126;2023-03-01T05:44:20;28.03;;;18.30;;
665;SDS011;315;48.738;9.126;2023-03-01T05:46:46;25.20;;;19.70;;
665;SDS011;315;48.738;9.126;2023-03-01T05:49:12;23.70;;;17.70;;
665;SDS011;315;48.738;9.126;2023-03-01T05:51:41;24.33;;;16.37;;
665;SDS011;315;48.738;9.126;2023-03-01T05:54:08;24.47;;;18.77;;
665;SDS011;315;48.738;9.126;2023-03-01T05:56:34;27.07;;;19.43;;
665;SDS011;315;48.738;9.126;2023-03-01T05:59:01;26.37;;;19.40;;
665;SDS011;315;48.738;9.126;2023-03-01T06:01:27;24.30;;;18.03;;
665;SDS011;315;48.738;9.126;2023-03-01T06:03:54;24.30;;;17.53;;
665;SDS011;315;48.738;9.126;2023-03-01T06:06:20;23.80;;;19.50;;
665;SDS011;315;48.738;9.126;2023-03-01T06:08:46;25.67;;;18.23;;
665;SDS011;315;48.738;9.126;2023-03-01T06:11:11;25.50;;;17.43;;
665;SDS011;315;48.738;9.126;2023-03-01T06:13:37;25.50;;;18.60;;
665;SDS011;315;48.738;9.126;2023-03-01T06:16:05;24.70;;;18.70;;
665;SDS011;315;48.738;9.126;2023-03-01T06:18:31;22.37;;;18.17;;
665;SDS011;315;48.738;9.126;2023-03-01T06:20:57;23.00;;;17.20;;
665;SDS011;315;48.738;9.126;2023-03-01T06:23:23;26.90;;;18.57;;
665;SDS011;315;48.738;9.126;2023-03-01T06:25:49;26.30;;;20.17;;
665;SDS011;315;48.738;9.126;2023-03-01T06:28:14;28.03;;;18.47;;
665;SDS011;315;48.738;9.126;2023-03-01T06:30:40;25.17;;;18.47;;
665;SDS011;315;48.738;9.126;2023-03-01T06:33:05;26.57;;;17.10;;
665;SDS011;315;48.738;9.126;2023-03-01T06:35:31;30.40;;;19.60;;
665;SDS011;315;48.738;9.126;2023-03-01T06:37:58;26.27;;;19.40;;
665;SDS011;315;48.738;9.126;2023-03-01T06:40:24;23.87;;;16.77;;
665;SDS011;315;48.738;9.126;2023-03-01T06:42:50;24.30;;;18.27;;
665;SDS011;315;48.738;9.126;2023-03-01T06:45:17;23.60;;;18.70;;
665;SDS011;315;48.738;9.126;2023-03-01T06:47:44;22.90;;;17.07;;
665;SDS011;315;48.738;9.126;2023-03-01T06:50:09;24.07;;;18.30;;
665;SDS011;315;48.738;9.126;2023-03-01T06:52:37;27.73;;;18.30;;
665;SDS011;315;48.738;9.126;2023-03-01T06:55:03;24.93;;;17.00;;
665;SDS011;315;48.738;9.126;2023-03-01T06:57:29;27.53;;;18.87;;
665;SDS011;315;48.738;9.126;2023-03-01T06:59:55;26.73;;;17.03;;
665;SDS011;315;48.738;9.126;2023-03-01T07:02:20;24.80;;;16.73;;
665;SDS011;315;48.738;9.126;2023-03-01T07:04:46;26.90;;;18.17;;
665;SDS011;315;48.738;9.126;2023-03-01T07:07:13;21.80;;;17.50;;
665;SDS011;315;48.738;9.126;2023-03-01T07:09:38;23.70;;;18.37;;
665;SDS011;315;48.738;9.126;2023-03-01T07:12:04;26.13;;;17.27;;
665;SDS011;315;48.738;9.126;2023-03-01T07:14:30;23.33;;;18.00;;
665;SDS011;315;48.738;9.126;2023-03-01T07:16:55;26.27;;;18.00;;
665;SDS011;315;48.738;9.126;2023-03-01T07:19:21;22.30;;;17.50;;
665;SDS011;315;48.738;9.126;2023-03-01T07:21:47;23.83;;;19.47;;
665;SDS011;315;48.738;9.126;2023-03-01T07:24:13;28.93;;;18.67;;
665;SDS011;315;48.738;9.126;2023-03-01T07:26:39;23.80;;;17.87;;
665;SDS011;315;48.738;9.126;2023-03-01T07:29:05;22.47;;;17.73;;
665;SDS011;315;48.738;9.126;2023-03-01T07:31:32;25.07;;;18.43;;
665;SDS011;315;48.738;9.126;2023-03-01T07:33:58;24.43;;;19.17;;
665;SDS011;315;48.738;9.126;2023-03-01T07:36:23;24.90;;;18.50;;
665;SDS011;315;48.738;9.126;2023-03-01T07:38:49;23.70;;;18.97;;
665;SDS011;315;48.738;9.126;2023-03-01T07:41:16;28.10;;;20.70;;
665;SDS011;315;48.738;9.126;2023-03-01T07:43:41;25.30;;;19.33;;
665;SDS011;315;48.738;9.126;2023-03-01T07:46:07;26.03;;;19.30;;
665;SDS011;315;48.738;9.126;2023-03-01T07:48:32;25.57;;;19.63;;
665;SDS011;315;48.738;9.126;2023-03-01T07:50:59;26.73;;;19.30;;
665;SDS011;315;48.738;9.126;2023-03-01T07:53:29;23.80;;;18.10;;
665;SDS011;315;48.738;9.126;2023-03-01T07:58:29;23.63;;;19.40;;
665;SDS011;315;48.738;9.126;2023-03-01T08:00:54;24.87;;;18.77;;
665;SDS011;315;48.738;9.126;2023-03-01T08:03:20;27.23;;;20.23;;
665;SDS011;315;48.738;9.126;2023-03-01T08:05:45;25.57;;;18.23;;
665;SDS011;315;48.738;9.126;2023-03-01T08:08:11;24.97;;;20.20;;
665;SDS011;315;48.738;9.126;2023-03-01T08:10:36;25.20;;;20.00;;
665;SDS011;315;48.738;9.126;2023-03-01T08:13:02;23.30;;;18.50;;
665;SDS011;315;48.738;9.126;2023-03-01T08:15:28;28.23;;;19.40;;
665;SDS011;315;48.738;9.126;2023-03-01T08:17:53;23.80;;;19.17;;
665;SDS011;315;48.738;9.126;2023-03-01T08:20:19;26.07;;;19.47;;
665;SDS011;315;48.738;9.126;2023-03-01T08:22:44;27.33;;;19.53;;
665;SDS011;315;48.738;9.126;2023-03-01T08:25:10;23.53;;;18.23;;
665;SDS011;315;48.738;9.126;2023-03-01T08:27:35;23.00;;;19.00;;
665;SDS011;315;48.738;9.126;2023-03-01T08:30:01;22.53;;;18.80;;
665;SDS011;315;48.738;9.126;2023-03-01T08:32:26;24.30;;;20.50;;
665;SDS011;315;48.738;9.126;2023-03-01T08:34:52;26.33;;;19.20;;
665;SDS011;315;48.738;9.126;2023-03-01T08:37:17;25.43;;;20.37;;
665;SDS011;315;48.738;9.126;2023-03-01T08:39:43;27.17;;;20.10;;
665;SDS011;315;48.738;9.126;2023-03-01T08:42:08;22.30;;;19.37;;
665;SDS011;315;48.738;9.126;2023-03-01T08:44:34;26.23;;;19.97;;
665;SDS011;315;48.738;9.126;2023-03-01T08:47:00;23.77;;;19.30;;
665;SDS011;315;48.738;9.126;2023-03-01T08:49:27;24.83;;;20.97;;
665;SDS011;315;48.738;9.126;2023-03-01T08:51:52;27.83;;;21.07;;
665;SDS011;315;48.738;9.126;2023-03-01T08:54:19;28.63;;;19.57;;
665;SDS011;315;48.738;9.126;2023-03-01T08:56:45;22.53;;;19.93;;
665;SDS011;315;48.738;9.126;2023-03-01T08:59:11;23.63;;;21.13;;
665;SDS011;315;48.738;9.126;2023-03-01T09:01:38;24.47;;;21.13;;
665;SDS011;315;48.738;9.126;2023-03-01T09:04:05;27.40;;;23.17;;
665;SDS011;315;48.738;9.126;2023-03-01T09:06:31;22.93;;;20.00;;
665;SDS011;315;48.738;9.126;2023-03-01T09:08:58;24.13;;;21.33;;
665;SDS011;315;48.738;9.126;2023-03-01T09:11:24;26.20;;;21.17;;
665;SDS011;315;48.738;9.126;2023-03-01T09:13:49;24.17;;;21.20;;
665;SDS011;315;48.738;9.126;2023-03-01T09:16:16;22.30;;;20.10;;
665;SDS011;315;48.738;9.126;2023-03-01T09:18:44;23.60;;;20.60;;
665;SDS011;315;48.738;9.126;2023-03-01T09:21:14;24.97;;;22.50;;
665;SDS011;315;48.738;9.126;2023-03-01T09:23:45;26.00;;;23.50;;
665;SDS011;315;48.738;9.126;2023-03-01T09:26:13;25.80;;;23.13;;
665;SDS011;315;48.738;9.126;2023-03-01T09:28:41;23.97;;;21.57;;
665;SDS011;315;48.738;9.126;2023-03-01T09:31:07;25.00;;;22.47;;
665;SDS011;315;48.738;9.126;2023-03-01T09:33:33;22.87;;;20.30;;
665;SDS011;315;48.738;9.126;2023-03-01T09:35:59;25.10;;;22.77;;
665;SDS011;315;48.738;9.126;2023-03-01T09:38:29;26.33;;;23.57;;
665;SDS011;315;48.738;9.126;2023-03-01T09:40:55;24.50;;;21.87;;
665;SDS011;315;48.738;9.126;2023-03-01T09:43:23;25.40;;;22.73;;
665;SDS011;315;48.738;9.126;2023-03-01T09:45:59;25.83;;;22.90;;
665;SDS011;315;48.738;9.126;2023-03-01T09:48:30;26.17;;;23.67;;
665;SDS011;315;48.738;9.126;2023-03-01T09:51:04;23.70;;;21.30;;
665;SDS011;315;48.738;9.126;2023-03-01T09:53:37;24.30;;;22.00;;
665;SDS011;315;48.738;9.126;2023-03-01T09:58:58;23.47;;;21.10;;
665;SDS011;315;48.738;9.126;2023-03-01T10:01:40;25.20;;;22.67;;
665;SDS011;315;48.738;9.126;2023-03-01T10:04:23;23.27;;;20.90;;
665;SDS011;315;48.738;9.126;2023-03-01T10:09:36;23.20;;;21.10;;
665;SDS011;315;48.738;9.126;2023-03-01T10:12:25;25.27;;;22.77;;
665;SDS011;315;48.738;9.126;2023-03-01T10:15:14;26.67;;;24.00;;
665;SDS011;315;48.738;9.126;2023-03-01T10:17:50;25.00;;;22.47;;
665;SDS011;315;48.738;9.126;2023-03-01T10:20:26;23.37;;;21.07;;
665;SDS011;315;48.738;9.126;2023-03-01T10:23:04;25.63;;;22.47;;
665;SDS011;315;48.738;9.126;2023-03-01T10:28:22;24.33;;;21.80;;
665;SDS011;315;48.738;9.126;2023-03-01T10:31:01;23.43;;;21.13;;
665;SDS011;315;48.738;9.126;2023-03-01T10:33:35;24.00;;;21.70;;
665;SDS011;315;48.738;9.126;2023-03-01T10:36:04;23.97;;;21.50;;
665;SDS011;315;48.738;9.126;2023-03-01T10:38:31;24.27;;;21.97;;
665;SDS011;315;48.738;9.126;2023-03-01T10:41:19;24.73;;;22.33;;
665;SDS011;315;48.738;9.126;2023-03-01T10:43:53;25.20;;;22.80;;
665;SDS011;315;48.738;9.126;2023-03-01T10:49:06;24.73;;;22.43;;
665;SDS011;315;48.738;9.126;2023-03-01T10:51:32;24.57;;;22.37;;
665;SDS011;315;48.738;9.126;2023-03-01T10:53:57;24.63;;;22.63;;
665;SDS011;315;48.738;9.126;2023-03-01T10:56:23;23.47;;;21.27;;
665;SDS011;315;48.738;9.126;2023-03-01T10:59:00;24.07;;;21.97;;
665;SDS011;315;48.738;9.126;2023-03-01T11:01:29;23.37;;;21.50;;
665;SDS011;315;48.738;9.126;2023-03-01T11:04:09;24.40;;;22.20;;
665;SDS011;315;48.738;9.126;2023-03-01T11:06:38;23.70;;;21.60;;
665;SDS011;315;48.738;9.126;2023-03-01T11:09:19;26.47;;;23.97;;
665;SDS011;315;48.738;9.126;2023-03-01T11:11:51;24.30;;;21.97;;
665;SDS011;315;48.738;9.126;2023-03-01T11:14:22;21.57;;;19.83;;
665;SDS011;315;48.738;9.126;2023-03-01T11:17:03;22.87;;;20.90;;
665;SDS011;315;48.738;9.126;2023-03-01T11:20:06;22.40;;;20.50;;
665;SDS011;315;48.738;9.126;2023-03-01T11:22:40;23.00;;;21.00;;
665;SDS011;315;48.738;9.126;2023-03-01T11:25:16;24.73;;;22.43;;
665;SDS011;315;48.738;9.126;2023-03-01T11:27:44;23.63;;;21.63;;
665;SDS011;315;48.738;9.126;2023-03-01T11:33:05;22.83;;;20.63;;
665;SDS011;315;48.738;9.126;2023-03-01T11:35:45;21.00;;;19.00;;
665;SDS011;315;48.738;9.126;2023-03-01T11:38:25;23.53;;;21.13;;
665;SDS011;315;48.738;9.126;2023-03-01T11:40:54;22.10;;;20.00;;
665;SDS011;315;48.738;9.126;2023-03-01T11:43:30;21.17;;;19.20;;
665;SDS011;315;48.738;9.126;2023-03-01T11:54:09;24.30;;;21.90;;
665;SDS011;315;48.738;9.126;2023-03-01T11:56:46;22.90;;;20.80;;
665;SDS011;315;48.738;9.126;2023-03-01T12:04:35;23.50;;;21.00;;
665;SDS011;315;48.738;9.126;2023-03-01T12:21:23;23.20;;;21.10;;
665;SDS011;315;48.738;9.126;2023-03-01T12:24:20;23.20;;;21.10;;
665;SDS011;315;48.738;9.126;2023-03-01T12:29:34;22.50;;;20.43;;
665;SDS011;315;48.738;9.126;2023-03-01T12:35:23;22.73;;;20.77;;
665;SDS011;315;48.738;9.126;2023-03-01T12:51:26;22.50;;;20.63;;
665;SDS011;315;48.738;9.126;2023-03-01T12:53:55;20.50;;;18.67;;
665;SDS011;315;48.738;9.126;2023-03-01T12:56:23;22.67;;;20.03;;
665;SDS011;315;48.738;9.126;2023-03-01T13:07:40;19.80;;;17.90;;
665;SDS011;315;48.738;9.126;2023-03-01T13:15:30;19.43;;;17.70;;
665;SDS011;315;48.738;9.126;2023-03-01T13:18:02;19.17;;;17.47;;
665;SDS011;315;48.738;9.126;2023-03-01T13:23:39;19.77;;;18.00;;
665;SDS011;315;48.738;9.126;2023-03-01T13:33:45;18.10;;;16.50;;
665;SDS011;315;48.738;9.126;2023-03-01T13:36:11;20.20;;;18.30;;
665;SDS011;315;48.738;9.126;2023-03-01T13:46:49;16.67;;;15.20;;
665;SDS011;315;48.738;9.126;2023-03-01T13:49:18;17.87;;;16.17;;
665;SDS011;315;48.738;9.126;2023-03-01T13:51:46;21.13;;;19.00;;
665;SDS011;315;48.738;9.126;2023-03-01T13:54:12;19.20;;;17.37;;
665;SDS011;315;48.738;9.126;2023-03-01T13:56:40;19.93;;;17.97;;
665;SDS011;315;48.738;9.126;2023-03-01T13:59:12;20.90;;;19.07;;
665;SDS011;315;48.738;9.126;2023-03-01T14:01:40;20.20;;;18.20;;
665;SDS011;315;48.738;9.126;2023-03-01T14:06:47;20.93;;;19.13;;
665;SDS011;315;48.738;9.126;2023-03-01T14:09:17;22.67;;;20.57;;
665;SDS011;315;48.738;9.126;2023-03-01T14:11:54;23.10;;;20.90;;
665;SDS011;315;48.738;9.126;2023-03-01T14:14:43;23.30;;;21.20;;
665;SDS011;315;48.738;9.126;2023-03-01T14:19:46;24.00;;;21.90;;
665;SDS011;315;48.738;9.126;2023-03-01T14:22:26;23.70;;;21.37;;
665;SDS011;315;48.738;9.126;2023-03-01T14:24:56;22.33;;;20.13;;
665;SDS011;315;48.738;9.126;2023-03-01T14:27:35;21.80;;;19.53;;
665;SDS011;315;48.738;9.126;2023-03-01T14:30:11;23.50;;;21.00;;
665;SDS011;315;48.738;9.126;2023-03-01T14:32:40;22.70;;;20.30;;
665;SDS011;315;48.738;9.126;2023-03-01T14:35:19;28.17;;;23.27;;
665;SDS011;315;48.738;9.126;2023-03-01T14:37:46;26.87;;;21.00;;
665;SDS011;315;48.738;9.126;2023-03-01T14:40:20;22.33;;;19.97;;
665;SDS011;315;48.738;9.126;2023-03-01T14:42:48;27.33;;;21.50;;
665;SDS011;315;48.738;9.126;2023-03-01T14:45:13;24.23;;;20.80;;
665;SDS011;315;48.738;9.126;2023-03-01T14:47:39;23.80;;;19.70;;
665;SDS011;315;48.738;9.126;2023-03-01T14:50:09;26.60;;;21.00;;
665;SDS011;315;48.738;9.126;2023-03-01T14:52:46;22.43;;;18.57;;
665;SDS011;315;48.738;9.126;2023-03-01T14:55:15;23.70;;;18.67;;
665;SDS011;315;48.738;9.126;2023-03-01T14:57:44;22.97;;;18.77;;
665;SDS011;315;48.738;9.126;2023-03-01T15:00:16;23.97;;;20.80;;
665;SDS011;315;48.738;9.126;2023-03-01T15:02:46;28.17;;;20.30;;
665;SDS011;315;48.738;9.126;2023-03-01T15:05:14;28.90;;;20.53;;
665;SDS011;315;48.738;9.126;2023-03-01T15:07:41;24.67;;;20.13;;
665;SDS011;315;48.738;9.126;2023-03-01T15:10:24;24.03;;;19.07;;
665;SDS011;315;48.738;9.126;2023-03-01T15:12:51;24.50;;;20.27;;
665;SDS011;315;48.738;9.126;2023-03-01T15:15:37;22.13;;;18.40;;
665;SDS011;315;48.738;9.126;2023-03-01T15:18:11;22.80;;;19.90;;
665;SDS011;315;48.738;9.126;2023-03-01T15:20:41;23.20;;;19.40;;
665;SDS011;315;48.738;9.126;2023-03-01T15:23:13;22.40;;;20.07;;
665;SDS011;315;48.738;9.126;2023-03-01T15:25:47;24.20;;;19.50;;
665;SDS011;315;48.738;9.126;2023-03-01T15:28:21;25.50;;;19.80;;
665;SDS011;315;48.738;9.126;2023-03-01T15:30:55;23.83;;;19.40;;
665;SDS011;315;48.738;9.126;2023-03-01T15:33:29;24.03;;;20.43;;
665;SDS011;315;48.738;9.126;2023-03-01T15:35:56;24.87;;;20.20;;
665;SDS011;315;48.738;9.126;2023-03-01T15:41:22;26.33;;;19.27;;
665;SDS011;315;48.738;9.126;2023-03-01T15:43:47;26.23;;;21.03;;
665;SDS011;315;48.738;9.126;2023-03-01T15:46:33;22.30;;;19.80;;
665;SDS011;315;48.738;9.126;2023-03-01T15:49:03;23.70;;;18.90;;
665;SDS011;315;48.738;9.126;2023-03-01T15:51:34;25.73;;;20.07;;
665;SDS011;315;48.738;9.126;2023-03-01T15:54:10;26.80;;;18.70;;
665;SDS011;315;48.738;9.126;2023-03-01T15:56:43;28.60;;;18.90;;
665;SDS011;315;48.738;9.126;2023-03-01T15:59:09;22.47;;;17.97;;
665;SDS011;315;48.738;9.126;2023-03-01T16:01:39;24.97;;;19.63;;
665;SDS011;315;48.738;9.126;2023-03-01T16:04:05;23.43;;;18.17;;
665;SDS011;315;48.738;9.126;2023-03-01T16:06:31;22.90;;;18.90;;
665;SDS011;315;48.738;9.126;2023-03-01T16:08:56;21.63;;;17.37;;
665;SDS011;315;48.738;9.126;2023-03-01T16:11:22;22.67;;;18.00;;
665;SDS011;315;48.738;9.126;2023-03-01T16:13:47;26.70;;;20.10;;
665;SDS011;315;48.738;9.126;2023-03-01T16:16:14;23.10;;;18.40;;
665;SDS011;315;48.738;9.126;2023-03-01T16:18:45;23.97;;;17.30;;
665;SDS011;315;48.738;9.126;2023-03-01T16:21:29;22.37;;;19.37;;
665;SDS011;315;48.738;9.126;2023-03-01T16:23:55;23.73;;;18.13;;
665;SDS011;315;48.738;9.126;2023-03-01T16:26:21;22.90;;;17.87;;
665;SDS011;315;48.738;9.126;2023-03-01T16:28:46;25.87;;;18.67;;
665;SDS011;315;48.738;9.126;2023-03-01T16:31:15;20.73;;;16.70;;
665;SDS011;315;48.738;9.126;2023-03-01T16:33:43;23.07;;;18.27;;
665;SDS011;315;48.738;9.126;2023-03-01T16:36:14;26.00;;;17.60;;
665;SDS011;315;48.738;9.126;2023-03-01T16:38:41;27.67;;;18.97;;
665;SDS011;315;48.738;9.126;2023-03-01T16:41:09;23.90;;;17.13;;
665;SDS011;315;48.738;9.126;2023-03-01T16:43:37;30.97;;;19.13;;
665;SDS011;315;48.738;9.126;2023-03-01T16:46:09;22.13;;;18.87;;
665;SDS011;315;48.738;9.126;2023-03-01T16:48:36;25.77;;;17.57;;
665;SDS011;315;48.738;9.126;2023-03-01T16:51:01;22.93;;;17.33;;
665;SDS011;315;48.738;9.126;2023-03-01T16:53:28;23.30;;;17.67;;
665;SDS011;315;48.738;9.126;2023-03-01T16:55:54;21.43;;;18.10;;
665;SDS011;315;48.738;9.126;2023-03-01T16:58:23;24.60;;;18.43;;
665;SDS011;315;48.738;9.126;2023-03-01T17:00:50;28.43;;;17.50;;
665;SDS011;315;48.738;9.126;2023-03-01T17:03:16;21.13;;;17.67;;
665;SDS011;315;48.738;9.126;2023-03-01T17:05:42;22.83;;;18.23;;
665;SDS011;315;48.738;9.126;2023-03-01T17:08:07;23.83;;;19.03;;
665;SDS011;315;48.738;9.126;2023-03-01T17:10:33;23.30;;;17.83;;
665;SDS011;315;48.738;9.126;2023-03-01T17:12:58;22.80;;;17.20;;
665;SDS011;315;48.738;9.126;2023-03-01T17:15:24;22.47;;;17.40;;
665;SDS011;315;48.738;9.126;2023-03-01T17:17:49;24.13;;;17.57;;